Time;durP1;ratioP1;P1;durP2;ratioP2;P2;SDS_P1;SDS_P2;PMS_P1;PMS_P2;Temp;Humidity;BMP_temperature;BMP_pressure;BME280_temperature;BME280_humidity;BME280_pressure;Samples;Min_cycle;Max_cycle;Signal;HPM_P1;HPM_P2
2022/05/07 00:02:17;;;;;;;4.37;3.30;;;;;;;17.42;45.80;95080.72;5133389;27;20734;-81
2022/05/07 00:04:45;;;;;;;3.70;2.90;;;;;;;17.40;45.96;95083.50;5133891;27;20268;-81
2022/05/07 00:07:12;;;;;;;4.00;2.57;;;;;;;17.37;45.85;95086.41;5133542;27;20192;-82
2022/05/07 00:09:40;;;;;;;3.40;2.73;;;;;;;17.34;45.86;95086.75;5133771;27;20211;-81
2022/05/07 00:12:08;;;;;;;4.43;2.27;;;;;;;17.32;45.77;95090.50;5133803;27;20562;-82
2022/05/07 00:14:35;;;;;;;4.60;3.00;;;;;;;17.30;45.76;95082.88;5133892;27;20252;-81
2022/05/07 00:19:48;;;;;;;4.23;2.67;;;;;;;17.26;45.54;95077.25;5133950;27;20214;-82
2022/05/07 00:22:15;;;;;;;5.27;2.77;;;;;;;17.25;45.67;95077.41;5133338;27;20192;-81
2022/05/07 00:24:42;;;;;;;4.90;2.77;;;;;;;17.22;45.43;95070.00;5133372;27;20271;-80
2022/05/07 00:27:09;;;;;;;3.73;2.87;;;;;;;17.21;45.40;95078.72;5133115;27;20184;-81
2022/05/07 00:29:36;;;;;;;4.23;3.10;;;;;;;16.51;45.39;94974.38;5133302;27;20184;-81
2022/05/07 00:32:03;;;;;;;4.57;2.50;;;;;;;17.00;45.32;95050.88;5133709;27;20263;-80
2022/05/07 00:34:30;;;;;;;6.43;2.20;;;;;;;17.14;45.27;95077.78;5133123;27;20566;-80
2022/05/07 00:36:58;;;;;;;3.30;2.60;;;;;;;16.90;45.30;95045.91;5133187;27;20227;-82
2022/05/07 00:39:25;;;;;;;4.33;3.17;;;;;;;16.92;45.23;95049.13;5133025;27;20207;-81
2022/05/07 00:41:53;;;;;;;4.53;2.83;;;;;;;17.07;45.29;95076.88;5133457;27;20287;-81
2022/05/07 00:44:21;;;;;;;2.90;2.33;;;;;;;17.03;45.32;95068.63;5133005;27;20199;-81
2022/05/07 00:46:49;;;;;;;9.73;3.00;;;;;;;17.01;45.05;95073.16;5132991;27;20569;-81
2022/05/07 00:49:17;;;;;;;5.83;2.90;;;;;;;16.98;45.38;95073.50;5133137;27;20184;-82
2022/05/07 00:51:42;;;;;;;5.33;2.80;;;;;;;16.94;45.09;95065.28;5132949;27;20192;-81
2022/05/07 00:54:12;;;;;;;3.23;2.90;;;;;;;16.94;45.30;95065.28;5132833;27;20662;-81
2022/05/07 00:56:38;;;;;;;4.07;2.80;;;;;;;16.38;45.17;94979.25;5133019;27;20216;-79
2022/05/07 00:59:06;;;;;;;2.93;2.30;;;;;;;16.74;45.07;95039.03;5133092;27;20288;-81
2022/05/07 01:01:33;;;;;;;6.30;2.73;;;;;;;16.40;44.99;95000.53;5132911;27;20663;-82
2022/05/07 01:04:00;;;;;;;3.00;2.70;;;;;;;16.85;44.96;95066.28;5132252;27;20722;-79
2022/05/07 01:06:27;;;;;;;2.97;2.60;;;;;;;16.82;44.69;95058.88;5132942;27;20643;-81
2022/05/07 01:08:54;;;;;;;6.90;2.70;;;;;;;16.82;44.74;95061.44;5132379;27;20203;-81
2022/05/07 01:11:22;;;;;;;3.03;2.47;;;;;;;16.80;44.74;95061.63;5132449;27;20204;-80
2022/05/07 01:13:49;;;;;;;3.20;2.53;;;;;;;16.79;44.71;95059.19;5132770;27;20193;-81
2022/05/07 01:16:16;;;;;;;3.23;2.80;;;;;;;16.31;44.60;94989.41;5132219;27;20219;-80
2022/05/07 01:18:43;;;;;;;2.90;2.70;;;;;;;16.75;44.42;95068.25;5132683;27;20189;-81
2022/05/07 01:21:14;;;;;;;4.87;2.40;;;;;;;16.70;44.49;95079.03;5144838;27;20184;-81
2022/05/07 01:23:43;;;;;;;3.40;2.70;;;;;;;16.70;44.49;95065.31;5138879;27;20188;-81
2022/05/07 01:26:10;;;;;;;4.00;2.87;;;;;;;16.68;44.38;95064.69;5132113;27;20176;-81
2022/05/07 01:28:37;;;;;;;3.43;2.87;;;;;;;16.49;44.31;95038.28;5132497;27;20184;-81
2022/05/07 01:31:04;;;;;;;6.97;3.17;;;;;;;16.66;44.15;95069.22;5132699;27;20180;-82
2022/05/07 01:33:33;;;;;;;3.60;3.30;;;;;;;16.17;44.38;94995.28;5132824;27;20184;-81
2022/05/07 01:36:02;;;;;;;4.00;2.70;;;;;;;16.63;44.23;95082.47;5132288;27;20231;-80
2022/05/07 01:38:30;;;;;;;7.23;2.80;;;;;;;16.60;44.20;95080.22;5132296;27;20650;-82
2022/05/07 01:40:59;;;;;;;3.97;2.80;;;;;;;16.57;44.13;95078.75;5132213;27;20187;-81
2022/05/07 01:43:27;;;;;;;3.20;2.60;;;;;;;16.47;44.06;95060.88;5136526;27;20188;-80
2022/05/07 01:45:55;;;;;;;4.87;2.63;;;;;;;16.52;44.18;95076.66;5131316;27;20195;-80
2022/05/07 01:48:21;;;;;;;6.10;2.97;;;;;;;16.53;44.18;95074.88;5132284;27;20208;-80
2022/05/07 01:50:48;;;;;;;3.13;2.90;;;;;;;16.49;44.19;95066.69;5131705;27;20184;-79
2022/05/07 01:53:15;;;;;;;5.47;2.90;;;;;;;16.48;44.32;95064.25;5131860;27;20195;-80
2022/05/07 01:55:44;;;;;;;3.17;2.57;;;;;;;16.46;44.19;95063.63;5131638;27;20227;-80
2022/05/07 01:58:11;;;;;;;3.50;2.50;;;;;;;16.46;44.07;95068.78;5131737;27;20192;-82
2022/05/07 02:00:40;;;;;;;3.17;2.63;;;;;;;16.22;43.96;95034.28;5131730;27;20222;-82
2022/05/07 02:03:08;;;;;;;4.70;2.53;;;;;;;16.33;44.03;95043.47;5131815;27;20307;-82
2022/05/07 02:05:35;;;;;;;4.20;3.00;;;;;;;16.47;44.14;95066.03;5131462;27;20185;-81
2022/05/07 02:08:02;;;;;;;3.10;2.47;;;;;;;16.48;44.33;95077.16;5131418;27;20215;-80
2022/05/07 02:10:29;;;;;;;5.23;2.70;;;;;;;15.93;44.16;94983.22;5131652;27;20184;-80
2022/05/07 02:12:57;;;;;;;6.13;2.97;;;;;;;16.49;43.97;95074.44;5131362;27;20188;-79
2022/05/07 02:15:24;;;;;;;2.80;2.57;;;;;;;16.48;44.00;95077.97;5131427;27;20340;-81
2022/05/07 02:17:51;;;;;;;2.50;2.30;;;;;;;16.43;44.31;95077.66;5131369;27;20274;-80
2022/05/07 02:20:18;;;;;;;5.13;2.80;;;;;;;16.44;44.07;95078.44;5131223;27;20567;-80
2022/05/07 02:22:45;;;;;;;6.43;2.77;;;;;;;16.43;44.01;95077.66;5131194;27;20241;-80
2022/05/07 02:25:12;;;;;;;4.03;2.60;;;;;;;16.07;44.15;95023.03;5131326;27;20632;-81
2022/05/07 02:27:39;;;;;;;2.67;2.30;;;;;;;16.37;44.05;95078.31;5131102;27;20199;-79
2022/05/07 02:30:08;;;;;;;3.77;2.73;;;;;;;16.35;44.15;95074.28;5132206;27;20188;-78
2022/05/07 02:32:35;;;;;;;6.50;3.00;;;;;;;16.34;44.18;95078.63;5137914;27;20207;-80
2022/05/07 02:35:01;;;;;;;3.07;2.77;;;;;;;15.89;44.25;95014.66;5134219;27;20202;-80
2022/05/07 02:37:28;;;;;;;4.10;2.70;;;;;;;15.92;44.01;95028.03;5131302;27;20208;-80
2022/05/07 02:39:55;;;;;;;2.60;2.40;;;;;;;16.32;44.20;95088.34;5131165;27;20184;-79
2022/05/07 02:42:39;;;;;;;5.27;2.10;;;;;;;15.77;44.17;94996.94;5130904;27;20188;-81
2022/05/07 02:45:09;;;;;;;3.00;2.40;;;;;;;16.08;44.28;95060.75;5131098;27;20196;-80
2022/05/07 02:47:37;;;;;;;5.33;2.70;;;;;;;16.21;44.37;95089.47;5130545;27;20196;-80
2022/05/07 02:50:05;;;;;;;4.13;2.83;;;;;;;16.18;44.52;95091.56;5131156;27;20188;-81
2022/05/07 02:52:33;;;;;;;8.33;3.20;;;;;;;16.11;44.44;95088.03;5130895;28;20222;-80
2022/05/07 02:55:01;;;;;;;5.40;3.20;;;;;;;16.16;44.56;95099.47;5130643;28;20196;-79
2022/05/07 02:57:28;;;;;;;4.17;2.50;;;;;;;14.79;44.27;94886.03;5132521;27;20251;-80
2022/05/07 02:59:55;;;;;;;4.00;2.53;;;;;;;15.77;44.53;95038.19;5135036;27;20180;-82
2022/05/07 03:02:24;;;;;;;2.60;2.40;;;;;;;16.14;44.39;95092.84;5135282;27;20651;-83
2022/05/07 03:04:51;;;;;;;4.07;2.30;;;;;;;16.13;44.58;95093.81;5134865;27;20203;-81
2022/05/07 03:07:18;;;;;;;4.67;2.83;;;;;;;16.13;44.33;95101.56;5134934;27;20188;-78
2022/05/07 03:09:45;;;;;;;5.43;2.80;;;;;;;15.96;44.15;95069.78;5135063;27;20555;-79
2022/05/07 03:12:12;;;;;;;4.40;2.80;;;;;;;16.11;44.26;95094.00;5135371;27;20192;-80
2022/05/07 03:14:39;;;;;;;3.57;2.47;;;;;;;16.09;44.37;95098.50;5135071;27;20195;-80
2022/05/07 03:17:06;;;;;;;3.00;2.27;;;;;;;14.92;44.56;94915.69;5135280;27;20212;-80
2022/05/07 03:19:34;;;;;;;3.00;2.73;;;;;;;16.06;44.53;95096.22;5134654;27;20635;-80
2022/05/07 03:22:01;;;;;;;3.30;2.50;;;;;;;16.04;44.39;95101.56;5134858;27;20198;-80
2022/05/07 03:24:28;;;;;;;5.80;2.60;;;;;;;16.04;44.51;95100.75;5134827;27;20180;-81
2022/05/07 03:26:55;;;;;;;3.60;2.43;;;;;;;16.03;44.57;95109.47;5138251;27;20180;-80
2022/05/07 03:29:21;;;;;;;2.70;2.50;;;;;;;16.02;44.62;95095.75;5143032;27;20199;-80
2022/05/07 03:31:49;;;;;;;2.93;2.43;;;;;;;16.02;44.77;95098.34;5143573;27;20608;-81
2022/05/07 03:34:16;;;;;;;4.87;2.77;;;;;;;16.03;44.78;95099.94;5135103;27;20192;-83
2022/05/07 03:36:45;;;;;;;3.03;2.40;;;;;;;16.03;44.84;95101.72;5134679;27;20213;-80
2022/05/07 03:39:12;;;;;;;4.10;2.50;;;;;;;16.05;44.97;95095.41;5134890;27;20193;-80
2022/05/07 03:41:39;;;;;;;5.23;2.80;;;;;;;15.56;45.09;95020.59;5115924;27;20192;-80
2022/05/07 03:44:07;;;;;;;4.13;2.73;;;;;;;15.61;45.24;95024.47;5134442;27;20193;-81
2022/05/07 03:46:34;;;;;;;3.03;2.73;;;;;;;15.52;45.19;95011.56;5136290;27;20209;-80
2022/05/07 03:49:01;;;;;;;3.40;3.03;;;;;;;16.10;45.41;95109.59;5143710;27;20195;-80
2022/05/07 03:51:28;;;;;;;3.30;2.83;;;;;;;16.12;45.50;95102.53;5142913;27;20189;-81
2022/05/07 03:53:55;;;;;;;5.23;2.80;;;;;;;16.13;45.65;95104.94;5134350;27;20187;-80
2022/05/07 03:56:22;;;;;;;4.07;2.80;;;;;;;16.17;45.73;95098.50;5134787;27;20301;-79
2022/05/07 03:58:49;;;;;;;6.70;3.63;;;;;;;15.67;45.50;95021.25;5134092;27;20188;-79
2022/05/07 04:01:16;;;;;;;7.47;3.33;;;;;;;16.26;45.56;95113.00;5133992;27;20180;-80
2022/05/07 04:03:42;;;;;;;3.90;3.10;;;;;;;16.16;45.75;95089.13;5133842;27;20220;-81
2022/05/07 04:06:09;;;;;;;4.63;3.40;;;;;;;16.35;45.92;95123.31;5134174;27;20277;-82
2022/05/07 04:08:36;;;;;;;4.87;3.67;;;;;;;16.21;45.89;95102.38;5133515;27;20643;-81
2022/05/07 04:11:04;;;;;;;5.83;3.03;;;;;;;15.70;45.87;95006.28;5133777;27;20187;-80
2022/05/07 04:13:31;;;;;;;4.00;3.60;;;;;;;16.11;46.07;95067.38;5133538;27;20195;-79
2022/05/07 04:15:58;;;;;;;9.47;3.70;;;;;;;16.51;46.63;95131.84;5133651;27;20185;-80
2022/05/07 04:18:25;;;;;;;6.07;3.50;;;;;;;16.43;46.85;95113.00;5133355;27;20220;-80
2022/05/07 04:20:52;;;;;;;6.13;3.80;;;;;;;16.65;46.71;95132.16;5133830;27;20188;-80
2022/05/07 04:23:19;;;;;;;6.23;3.57;;;;;;;16.72;46.81;95133.97;5133685;27;20196;-79
2022/05/07 04:25:46;;;;;;;9.50;3.80;;;;;;;16.26;46.64;95037.34;5134914;27;20544;-80
2022/05/07 04:28:14;;;;;;;4.90;3.27;;;;;;;16.84;46.42;95115.50;5136311;27;20203;-81
2022/05/07 04:30:41;;;;;;;4.53;3.23;;;;;;;17.01;46.16;95128.25;5133862;27;20188;-81
2022/05/07 04:33:08;;;;;;;4.23;3.50;;;;;;;17.10;46.00;95123.03;5133576;27;20188;-81
2022/05/07 04:35:35;;;;;;;4.77;3.27;;;;;;;17.21;45.71;95128.66;5134021;27;20565;-81
2022/05/07 04:38:02;;;;;;;4.77;2.80;;;;;;;17.34;45.61;95130.69;5133460;27;20216;-80
2022/05/07 04:40:29;;;;;;;5.43;3.50;;;;;;;17.23;45.39;95085.34;5133418;27;20185;-79
2022/05/07 04:42:56;;;;;;;4.10;3.03;;;;;;;17.56;45.26;95126.53;5133072;27;20185;-80
2022/05/07 04:45:25;;;;;;;6.97;3.27;;;;;;;17.65;45.05;95110.00;5133043;27;20192;-80
2022/05/07 04:47:52;;;;;;;5.60;3.10;;;;;;;18.02;45.93;95124.03;5133219;27;20636;-79
2022/05/07 04:50:19;;;;;;;5.63;2.87;;;;;;;18.34;46.28;95129.94;5133253;27;20191;-80
2022/05/07 04:52:46;;;;;;;12.10;4.03;;;;;;;18.70;46.53;95122.38;5132929;27;20712;-81
2022/05/07 04:55:12;;;;;;;3.87;2.63;;;;;;;19.15;46.90;95125.78;5132676;27;20203;-82
2022/05/07 04:57:40;;;;;;;5.40;3.30;;;;;;;19.63;46.90;95126.97;5132739;27;20231;-81
2022/05/07 05:00:09;;;;;;;4.10;2.97;;;;;;;20.12;46.52;95121.09;5132846;27;20589;-81
2022/05/07 05:02:37;;;;;;;3.27;2.83;;;;;;;20.80;46.06;95131.84;5131918;27;20220;-81
2022/05/07 05:05:04;;;;;;;5.97;2.90;;;;;;;21.44;45.38;95139.41;5132740;27;20181;-81
2022/05/07 05:07:31;;;;;;;5.57;2.90;;;;;;;22.11;44.41;95130.00;5132637;27;20683;-79
2022/05/07 05:09:58;;;;;;;4.85;3.13;;;;;;;22.74;43.67;95121.81;5133022;27;20544;-80
2022/05/07 05:12:24;;;;;;;5.13;2.58;;;;;;;23.50;42.74;95129.91;5132785;27;20195;-80
2022/05/07 05:15:04;;;;;;;3.30;2.60;;;;;;;24.21;41.28;95131.53;5132250;27;20199;-81
2022/05/07 05:17:31;;;;;;;4.63;2.33;;;;;;;24.90;40.45;95121.16;5132992;27;20215;-81
2022/05/07 05:20:00;;;;;;;3.63;2.67;;;;;;;25.66;39.35;95130.44;5131539;27;20249;-81
2022/05/07 05:22:28;;;;;;;3.28;2.78;;;;;;;26.33;37.95;95132.97;5132878;27;20192;-80
2022/05/07 05:24:55;;;;;;;3.53;2.85;;;;;;;26.89;37.34;95118.56;5131848;27;20191;-80
2022/05/07 05:27:22;;;;;;;3.63;2.88;;;;;;;27.67;35.91;95133.06;5132237;27;20181;-81
2022/05/07 05:29:49;;;;;;;3.00;2.63;;;;;;;28.32;35.48;95145.84;5132499;27;20191;-82
2022/05/07 05:32:18;;;;;;;4.97;2.80;;;;;;;28.94;33.94;95143.19;5132277;27;20188;-82
2022/05/07 05:34:49;;;;;;;4.93;3.15;;;;;;;29.54;33.37;95135.56;5132109;27;20176;-79
2022/05/07 05:37:17;;;;;;;4.63;3.05;;;;;;;30.15;32.34;95142.34;5131962;27;20263;-80
2022/05/07 05:39:45;;;;;;;4.53;2.90;;;;;;;30.55;32.12;95127.91;5132358;27;20199;-81
2022/05/07 05:42:12;;;;;;;2.97;2.75;;;;;;;31.19;31.40;95156.91;5131971;27;20248;-80
2022/05/07 05:44:39;;;;;;;3.17;2.53;;;;;;;31.48;30.65;95114.25;5132038;27;20186;-81
2022/05/07 05:47:07;;;;;;;4.07;2.80;;;;;;;32.16;29.86;95138.78;5131742;27;20196;-81
2022/05/07 05:49:35;;;;;;;4.53;2.60;;;;;;;32.33;29.05;95106.00;5132015;27;20540;-81
2022/05/07 05:52:02;;;;;;;4.43;2.72;;;;;;;33.03;28.75;95146.00;5131515;27;20218;-81
2022/05/07 05:54:31;;;;;;;7.47;3.00;;;;;;;33.43;28.14;95150.44;5132155;27;20198;-79
2022/05/07 05:56:58;;;;;;;5.43;2.75;;;;;;;33.55;27.97;95113.81;5131483;27;20208;-82
2022/05/07 05:59:25;;;;;;;6.07;3.08;;;;;;;34.11;27.62;95140.09;5132031;27;20188;-80
2022/05/07 06:01:52;;;;;;;3.83;3.00;;;;;;;34.26;27.00;95103.88;5131365;27;20229;-80
2022/05/07 06:04:19;;;;;;;4.28;2.67;;;;;;;34.89;26.90;95157.06;5132047;27;20185;-81
2022/05/07 06:06:46;;;;;;;4.82;2.47;;;;;;;35.17;26.06;95156.28;5131675;27;20659;-80
2022/05/07 06:09:13;;;;;;;4.38;2.50;;;;;;;35.55;25.81;95151.09;5132224;27;20192;-79
2022/05/07 06:11:42;;;;;;;4.45;2.90;;;;;;;35.76;25.28;95135.69;5133674;27;20190;-80
2022/05/07 06:14:09;;;;;;;7.13;2.83;;;;;;;36.17;25.09;95159.91;5133940;27;20541;-81
2022/05/07 06:16:36;;;;;;;4.03;2.67;;;;;;;36.47;25.02;95154.44;5133916;27;20226;-80
2022/05/07 06:19:03;;;;;;;6.32;2.80;;;;;;;36.67;24.73;95152.25;5135111;27;20223;-81
2022/05/07 06:21:30;;;;;;;3.35;2.40;;;;;;;36.86;24.45;95138.09;5133647;27;20191;-81
2022/05/07 06:27:28;;;;;;;6.80;2.60;;;;;;;37.30;24.37;95160.78;5131509;27;20184;-79
2022/05/07 06:29:29;;;;;;;5.40;2.97;;;;;;;37.81;23.76;95159.81;5131511;27;20585;-81
2022/05/07 06:31:56;;;;;;;3.03;2.50;;;;;;;37.99;23.47;95152.78;5131232;27;20181;-80
2022/05/07 06:34:24;;;;;;;4.35;2.65;;;;;;;38.24;23.28;95159.47;5131300;27;20651;-80
2022/05/07 06:36:50;;;;;;;3.58;2.80;;;;;;;38.42;23.13;95153.19;5131293;27;20644;-79
2022/05/07 06:39:18;;;;;;;3.88;3.03;;;;;;;38.65;23.15;95160.13;5131795;27;20188;-79
2022/05/07 06:41:46;;;;;;;6.53;2.90;;;;;;;38.85;22.93;95166.88;5134708;27;20251;-79
2022/05/07 06:44:14;;;;;;;4.82;3.03;;;;;;;39.05;22.52;95162.91;5134419;27;20196;-79
2022/05/07 06:46:41;;;;;;;3.85;2.75;;;;;;;39.26;22.32;95162.41;5143041;27;20184;-81
2022/05/07 06:49:08;;;;;;;3.55;2.58;;;;;;;39.39;22.08;95165.00;5142232;27;20194;-81
2022/05/07 06:51:35;;;;;;;5.18;2.80;;;;;;;39.46;22.03;95136.97;5132821;27;20279;-81
2022/05/07 06:54:01;;;;;;;3.95;2.80;;;;;;;39.74;22.08;95153.63;5146585;27;20186;-80
2022/05/07 06:56:29;;;;;;;3.10;2.70;;;;;;;39.97;21.69;95160.44;5148366;28;20191;-79
2022/05/07 06:58:57;;;;;;;5.85;3.00;;;;;;;40.15;21.44;95157.81;5147452;28;20259;-80
2022/05/07 07:01:24;;;;;;;8.00;3.33;;;;;;;40.32;21.26;95147.09;5137015;28;20663;-80
2022/05/07 07:03:51;;;;;;;5.32;3.40;;;;;;;40.44;21.25;95136.50;5131075;28;20227;-80
2022/05/07 07:06:18;;;;;;;2.97;2.67;;;;;;;40.63;21.06;95144.25;5131170;28;20184;-81
2022/05/07 07:08:45;;;;;;;5.95;3.08;;;;;;;40.77;21.07;95150.22;5131055;28;20223;-82
2022/05/07 07:11:12;;;;;;;5.80;3.15;;;;;;;40.87;21.02;95147.19;5131275;28;20176;-81
2022/05/07 07:13:38;;;;;;;3.17;2.88;;;;;;;40.96;20.68;95141.06;5131556;28;20287;-80
2022/05/07 07:16:07;;;;;;;5.35;3.00;;;;;;;41.03;20.74;95131.41;5132291;28;20719;-81
2022/05/07 07:18:34;;;;;;;3.78;3.05;;;;;;;40.78;20.69;95078.59;5131748;28;20223;-82
2022/05/07 07:21:01;;;;;;;3.22;2.92;;;;;;;41.20;20.45;95135.94;5131118;28;20188;-80
2022/05/07 07:23:28;;;;;;;4.25;2.60;;;;;;;41.08;20.35;95111.66;5132645;28;20188;-81
2022/05/07 07:25:54;;;;;;;6.47;2.70;;;;;;;41.27;20.33;95130.03;5133525;28;20589;-80
2022/05/07 07:28:21;;;;;;;3.42;3.03;;;;;;;41.24;20.27;95133.41;5131553;28;20199;-82
2022/05/07 07:30:49;;;;;;;8.70;2.78;;;;;;;41.15;19.95;95117.28;5132101;28;20192;-82
2022/05/07 07:33:17;;;;;;;5.40;2.72;;;;;;;41.06;20.10;95120.00;5132001;28;20188;-82
2022/05/07 07:35:44;;;;;;;4.18;2.45;;;;;;;40.35;20.15;95031.19;5131280;28;20700;-81
2022/05/07 07:38:11;;;;;;;5.13;3.00;;;;;;;40.81;20.30;95118.97;5137257;28;20216;-81
2022/05/07 07:40:38;;;;;;;5.75;2.83;;;;;;;40.69;20.10;95118.84;5131348;28;20693;-83
2022/05/07 07:43:06;;;;;;;3.10;2.50;;;;;;;40.57;20.14;95119.50;5132355;27;20211;-81
2022/05/07 07:48:18;;;;;;;3.03;2.80;;;;;;;40.26;20.53;95118.88;5134975;27;20199;-81
2022/05/07 07:50:46;;;;;;;4.47;2.47;;;;;;;40.11;20.29;95118.25;5134607;27;20180;-80
2022/05/07 07:53:14;;;;;;;4.43;2.80;;;;;;;39.48;20.28;95043.75;5135019;27;20719;-83
2022/05/07 07:55:41;;;;;;;3.05;2.75;;;;;;;39.77;20.62;95118.16;5134216;27;20198;-78
2022/05/07 07:58:10;;;;;;;6.38;3.38;;;;;;;39.53;20.78;95123.91;5134713;27;20701;-81
2022/05/07 08:00:38;;;;;;;3.90;2.80;;;;;;;39.30;20.96;95115.19;5134661;27;20192;-81
2022/05/07 08:03:10;;;;;;;3.95;3.00;;;;;;;39.08;21.11;95116.03;5134330;27;20220;-79
2022/05/07 08:05:39;;;;;;;5.68;3.53;;;;;;;38.74;21.47;95105.91;5143243;27;20249;-79
2022/05/07 08:13:36;;;;;;;3.10;2.47;;;;;;;37.66;21.54;95110.22;5134323;27;20563;-79
2022/05/07 08:16:04;;;;;;;3.85;3.05;;;;;;;37.28;21.85;95102.41;5134009;27;20204;-82
2022/05/07 08:18:31;;;;;;;6.40;3.38;;;;;;;37.05;21.93;95112.19;5134467;27;20227;-79
2022/05/07 08:20:59;;;;;;;4.47;3.15;;;;;;;36.75;21.99;95112.69;5133597;27;20189;-81
2022/05/07 08:23:26;;;;;;;4.95;2.97;;;;;;;36.49;21.97;95114.97;5134361;27;20187;-81
2022/05/07 08:25:54;;;;;;;3.28;2.80;;;;;;;36.21;22.16;95111.38;5134196;27;20247;-82
2022/05/07 08:28:21;;;;;;;7.20;2.83;;;;;;;35.96;22.56;95113.34;5134535;27;20184;-84
2022/05/07 08:30:49;;;;;;;5.72;3.42;;;;;;;35.76;22.31;95110.94;5133621;27;20223;-81
2022/05/07 08:33:17;;;;;;;8.63;2.55;;;;;;;35.49;22.47;95103.53;5133562;27;20681;-82
2022/05/07 08:35:44;;;;;;;4.45;3.00;;;;;;;34.85;22.94;95028.44;5133462;27;20682;-80
2022/05/07 08:38:12;;;;;;;5.00;3.80;;;;;;;35.32;22.86;95112.78;5133411;27;20220;-81
2022/05/07 08:40:40;;;;;;;3.30;2.80;;;;;;;35.06;23.00;95092.84;5133471;27;20188;-81
2022/05/07 08:43:07;;;;;;;3.72;2.78;;;;;;;34.38;23.48;95006.81;5133938;27;20692;-82
2022/05/07 08:45:35;;;;;;;6.90;2.72;;;;;;;34.84;23.43;95104.72;5133884;27;20196;-81
2022/05/07 08:48:02;;;;;;;3.47;3.03;;;;;;;34.76;23.52;95107.19;5136744;27;20253;-81
2022/05/07 08:50:29;;;;;;;5.00;3.10;;;;;;;34.61;23.42;95111.56;5139999;27;20192;-81
2022/05/07 08:52:56;;;;;;;3.80;2.90;;;;;;;34.27;23.57;95079.69;5133051;27;20188;-81
2022/05/07 08:55:24;;;;;;;3.30;2.83;;;;;;;34.25;23.75;95111.03;5132071;27;20244;-79
2022/05/07 08:57:52;;;;;;;3.63;2.47;;;;;;;33.69;23.99;95050.34;5132953;27;20645;-81
2022/05/07 09:00:21;;;;;;;2.65;2.45;;;;;;;33.74;23.98;95100.72;5133506;27;20727;-80
2022/05/07 09:02:50;;;;;;;5.85;2.58;;;;;;;33.59;23.89;95112.19;5132818;27;20220;-81
2022/05/07 09:05:20;;;;;;;4.63;2.97;;;;;;;33.38;23.82;95100.06;5132873;27;20193;-80
2022/05/07 09:07:54;;;;;;;3.03;2.53;;;;;;;33.17;24.29;95105.44;5132554;27;20802;-79
2022/05/07 09:10:21;;;;;;;7.50;2.88;;;;;;;33.00;24.21;95101.50;5132779;27;20218;-81
2022/05/07 09:12:49;;;;;;;5.13;2.35;;;;;;;32.82;24.22;95087.72;5132603;27;20199;-82
2022/05/07 09:15:16;;;;;;;5.13;2.35;;;;;;;32.66;24.60;95097.53;5132721;27;20184;-80
2022/05/07 09:17:47;;;;;;;2.97;2.67;;;;;;;32.23;24.43;95056.50;5132577;27;20187;-80
2022/05/07 09:20:15;;;;;;;3.25;2.50;;;;;;;32.42;24.80;95091.97;5132598;27;20212;-80
2022/05/07 09:22:53;;;;;;;3.47;2.50;;;;;;;32.33;24.95;95095.41;5132457;27;20678;-81
2022/05/07 09:25:23;;;;;;;3.08;2.58;;;;;;;32.27;24.60;95091.19;5132483;27;20184;-81
2022/05/07 09:27:54;;;;;;;3.70;2.50;;;;;;;32.24;24.81;95087.19;5132454;27;20225;-80
2022/05/07 09:30:25;;;;;;;4.25;2.80;;;;;;;31.97;24.66;95045.88;5132992;27;20245;-80
2022/05/07 09:32:53;;;;;;;3.72;2.53;;;;;;;32.22;24.92;95084.81;5132030;27;20184;-81
2022/05/07 09:38:06;;;;;;;3.28;2.97;;;;;;;32.12;24.70;95057.53;5132461;27;20239;-81
2022/05/07 09:40:38;;;;;;;2.90;2.65;;;;;;;32.17;24.62;95062.84;5132627;27;20185;-81
2022/05/07 09:43:08;;;;;;;3.35;2.70;;;;;;;32.17;24.74;95062.84;5131984;27;20228;-80
2022/05/07 09:45:36;;;;;;;2.70;2.50;;;;;;;32.10;24.77;95043.78;5132446;27;20199;-80
2022/05/07 09:48:04;;;;;;;3.72;2.53;;;;;;;32.02;24.92;95033.72;5132087;27;20177;-81
2022/05/07 09:50:45;;;;;;;4.18;2.50;;;;;;;32.09;24.67;95056.22;5132098;27;20590;-80
2022/05/07 09:58:45;;;;;;;5.45;2.80;;;;;;;31.90;24.97;95036.63;5132298;27;20276;-81
2022/05/07 10:01:25;;;;;;;3.58;2.70;;;;;;;31.69;25.12;95027.81;5131632;27;20584;-81
2022/05/07 10:04:04;;;;;;;4.10;2.88;;;;;;;31.65;25.26;95021.47;5131553;27;20794;-81
2022/05/07 10:06:41;;;;;;;3.10;2.80;;;;;;;31.72;24.99;95035.25;5131159;27;20570;-82
2022/05/07 10:09:23;;;;;;;3.13;2.83;;;;;;;31.22;25.24;94979.31;5131829;27;20194;-81
2022/05/07 10:11:53;;;;;;;3.95;2.97;;;;;;;31.55;25.06;95026.75;5131998;27;20202;-81
2022/05/07 10:14:27;;;;;;;3.85;2.13;;;;;;;31.47;25.13;95022.75;5131674;27;20189;-81
2022/05/07 10:17:00;;;;;;;2.63;2.42;;;;;;;31.42;25.26;95025.38;5131660;27;20185;-80
2022/05/07 10:19:38;;;;;;;3.17;2.83;;;;;;;31.36;24.99;95018.50;5131299;27;20204;-80
2022/05/07 10:22:17;;;;;;;2.67;2.33;;;;;;;30.73;25.19;94929.47;5131240;27;20710;-79
2022/05/07 10:24:45;;;;;;;3.97;2.78;;;;;;;30.76;25.13;94938.75;5131991;27;20290;-79
2022/05/07 10:27:23;;;;;;;2.72;2.47;;;;;;;30.97;25.12;94987.97;5131568;27;20192;-80
2022/05/07 10:29:51;;;;;;;3.72;2.60;;;;;;;31.03;25.39;95006.47;5131511;27;20248;-79
2022/05/07 10:32:21;;;;;;;3.88;2.40;;;;;;;31.00;25.14;95010.41;5131306;27;20195;-81
2022/05/07 10:34:53;;;;;;;5.07;2.40;;;;;;;30.61;25.06;94960.53;5131223;27;20249;-79
2022/05/07 10:37:20;;;;;;;2.50;2.28;;;;;;;30.82;25.00;95006.38;5131058;27;20184;-81
2022/05/07 10:39:53;;;;;;;6.25;2.65;;;;;;;30.73;25.16;95010.56;5130935;27;20204;-80
2022/05/07 10:42:22;;;;;;;4.97;4.18;;;;;;;30.40;25.55;94977.34;5131088;27;20189;-82
2022/05/07 10:44:51;;;;;;;6.63;3.35;;;;;;;30.27;25.29;94983.03;5131074;27;20219;-80
2022/05/07 10:47:20;;;;;;;4.95;2.97;;;;;;;30.24;25.41;94987.78;5130942;27;20219;-82
2022/05/07 10:49:54;;;;;;;3.25;2.88;;;;;;;30.23;25.73;95003.88;5131960;27;20605;-81
2022/05/07 10:52:34;;;;;;;3.33;2.40;;;;;;;30.11;25.71;95005.88;5131255;27;20184;-81
2022/05/07 10:55:12;;;;;;;2.90;2.55;;;;;;;29.98;25.56;95004.44;5131103;27;20214;-81
2022/05/07 10:57:41;;;;;;;3.05;2.47;;;;;;;29.83;25.34;94999.03;5131360;28;20199;-81
2022/05/07 11:00:16;;;;;;;2.92;2.60;;;;;;;29.56;25.54;94980.59;5130652;28;20591;-81
2022/05/07 11:02:43;;;;;;;3.80;2.42;;;;;;;29.52;25.13;94985.56;5130760;28;20732;-80
2022/05/07 11:05:11;;;;;;;4.90;2.80;;;;;;;29.37;25.63;94991.47;5130300;28;20180;-80
2022/05/07 11:07:38;;;;;;;3.42;2.33;;;;;;;29.21;25.47;94987.88;5131045;28;20280;-82
2022/05/07 11:10:07;;;;;;;4.90;3.15;;;;;;;29.05;25.32;94987.94;5130775;28;20192;-81
2022/05/07 11:12:35;;;;;;;3.05;2.55;;;;;;;28.57;25.82;94924.41;5130976;28;20188;-80
2022/05/07 11:15:03;;;;;;;3.05;2.40;;;;;;;28.52;25.87;94931.47;5130462;28;20205;-81
2022/05/07 11:17:33;;;;;;;5.18;2.70;;;;;;;28.54;25.98;94960.94;5130799;27;20192;-82
2022/05/07 11:20:00;;;;;;;3.22;2.50;;;;;;;28.11;25.62;94904.56;5134573;27;20250;-81
2022/05/07 11:22:30;;;;;;;4.63;2.70;;;;;;;28.49;25.74;94985.38;5134974;27;20224;-82
2022/05/07 11:24:58;;;;;;;2.95;2.65;;;;;;;28.29;25.90;94948.25;5135025;27;20184;-80
2022/05/07 11:27:29;;;;;;;2.53;2.33;;;;;;;27.84;25.51;94886.03;5134622;27;20191;-80
2022/05/07 11:29:56;;;;;;;2.72;2.42;;;;;;;28.15;25.65;94927.53;5135033;27;20225;-81
2022/05/07 11:32:23;;;;;;;5.70;2.83;;;;;;;28.33;25.24;94950.16;5143016;27;20197;-81
2022/05/07 11:34:57;;;;;;;5.90;2.78;;;;;;;28.41;25.20;94962.09;5142820;27;20188;-81
2022/05/07 11:37:24;;;;;;;4.35;2.30;;;;;;;28.41;24.83;94956.84;5134954;27;20203;-80
2022/05/07 11:39:53;;;;;;;4.53;2.30;;;;;;;28.42;24.42;94955.81;5134613;27;20231;-81
2022/05/07 11:42:31;;;;;;;3.35;2.20;;;;;;;28.30;24.04;94926.94;5134574;27;20656;-80
2022/05/07 11:47:52;;;;;;;4.43;2.25;;;;;;;28.22;23.65;94920.25;5134640;27;20199;-83
2022/05/07 11:50:22;;;;;;;6.07;2.70;;;;;;;28.38;23.74;94947.59;5134645;27;20188;-81
2022/05/07 11:52:49;;;;;;;2.50;2.08;;;;;;;28.28;23.79;94934.25;5134721;27;20192;-81
2022/05/07 11:55:18;;;;;;;3.50;2.13;;;;;;;27.87;23.83;94860.09;5134358;27;20196;-81
2022/05/07 11:57:46;;;;;;;2.83;2.13;;;;;;;28.26;23.68;94929.25;5134725;27;20305;-79
2022/05/07 12:00:15;;;;;;;3.53;2.65;;;;;;;28.24;24.32;94933.19;5134554;27;20850;-81
2022/05/07 12:02:49;;;;;;;6.18;2.10;;;;;;;28.19;24.00;94933.09;5134761;27;20216;-79
2022/05/07 12:05:16;;;;;;;5.43;2.67;;;;;;;28.01;23.90;94905.22;5134499;27;20187;-80